»·PEaware :: N211WP KPOC-KWJF

N211WP :: KPOC-KWJF

FLIGHT INFORMATION

Flight Status: Arrived
Operator: Privately registered:
United States
More flights under this callsign
Pilot: Wayne M. (1794)
Aircraft: Unknown
(DA40)
More flights by this aircraft type
Origin: KPOC Brackett
United States
Destination: KWJF Gen Fox
United States
More flights between these airports :: More routes between these airports
Route: +PRADO V16 PDZ V197 PMD
File this flight plan on PilotEdge
Remarks: Instrument student
Altitude:
(Current/Filed)
8,000ft
Speed:
(Current/Filed)
135kts
Departed: 04-Apr-15 09:49 AM
Arrived: 04-Apr-15 10:42 AM
Distance/Time
Traveled:
45nm/0:52
Distance/Time
To Go:
Arrived

Flight Plot

Page will automatically refresh every two minutes.

Flight plan parsing failed; only flown route is shown


Map Options




Map Legend


Flown Route
Filed Route
Departure Airport
Arrival Airport
Navaid (VOR, NDB)
Fix

Horizontal Profiles

Position Reports

Time Latitude Longitude Heading Altitude Ground
Speed
04-Apr-15 09:35 34.089837 -117.782826 93 1015ft 0kts
04-Apr-15 09:36 34.089837 -117.782826 93 1015ft 0kts
04-Apr-15 09:37 34.089837 -117.782826 93 1015ft 0kts
04-Apr-15 09:38 34.089837 -117.782826 93 1015ft 0kts
04-Apr-15 09:39 34.089837 -117.782826 93 1015ft 0kts
04-Apr-15 09:40 34.090564 -117.781666 45 1015ft 4kts
04-Apr-15 09:41 34.090394 -117.777619 92 1015ft 18kts
04-Apr-15 09:42 34.090009 -117.774897 357 1015ft 0kts
04-Apr-15 09:43 34.090009 -117.774897 357 1015ft 0kts
04-Apr-15 09:44 34.090009 -117.774897 357 1015ft 0kts
04-Apr-15 09:45 34.090009 -117.774897 357 1015ft 0kts
04-Apr-15 09:46 34.090371 -117.774657 356 1015ft 0kts
04-Apr-15 09:47 34.090733 -117.774658 3 1015ft 5kts
04-Apr-15 09:48 34.091804 -117.788379 277 1368ft 84kts
04-Apr-15 09:49 34.082453 -117.795776 146 2295ft 92kts
04-Apr-15 09:50 34.062182 -117.789532 170 3395ft 88kts
04-Apr-15 09:51 34.040919 -117.787255 175 4297ft 100kts
04-Apr-15 09:52 34.017797 -117.784705 176 4855ft 119kts
04-Apr-15 09:53 33.991959 -117.783690 178 5393ft 125kts
04-Apr-15 09:54 33.965392 -117.783507 179 5924ft 127kts
04-Apr-15 09:55 33.933330 -117.783143 162 6554ft 125kts
04-Apr-15 09:56 33.924318 -117.756194 94 7085ft 121kts
04-Apr-15 09:57 33.922834 -117.725697 91 7613ft 120kts
04-Apr-15 09:58 33.921977 -117.697044 91 7952ft 129kts
04-Apr-15 09:59 33.921193 -117.662613 91 7950ft 144kts
04-Apr-15 10:00 33.920463 -117.625885 91 7953ft 145kts
04-Apr-15 10:01 33.919754 -117.589065 91 7957ft 146kts
04-Apr-15 10:02 33.919171 -117.559200 91 7957ft 146kts
04-Apr-15 10:03 33.931420 -117.532426 1 7952ft 144kts
04-Apr-15 10:04 33.945984 -117.554566 286 7961ft 145kts
04-Apr-15 10:05 33.958355 -117.587362 300 8072ft 139kts
04-Apr-15 10:06 33.972049 -117.613270 304 8545ft 126kts
04-Apr-15 10:07 33.985350 -117.636082 305 9008ft 121kts
04-Apr-15 10:08 33.997956 -117.656947 306 9455ft 118kts
04-Apr-15 10:09 34.013635 -117.682507 306 10019ft 116kts
04-Apr-15 10:10 34.031408 -117.711297 307 10669ft 114kts
04-Apr-15 10:11 34.046650 -117.735945 307 11234ft 112kts
04-Apr-15 10:12 34.060598 -117.758497 306 11758ft 111kts
04-Apr-15 10:13 34.076019 -117.783215 313 11941ft 134kts
04-Apr-15 10:14 34.101979 -117.798369 336 11930ft 117kts
04-Apr-15 10:15 34.125121 -117.810230 337 11941ft 138kts
04-Apr-15 10:16 34.152577 -117.824039 337 11939ft 143kts
04-Apr-15 10:17 34.180501 -117.837996 337 11940ft 144kts
04-Apr-15 10:18 34.208384 -117.851913 337 11939ft 144kts
04-Apr-15 10:19 34.236334 -117.865863 337 11938ft 144kts
04-Apr-15 10:20 34.261982 -117.878686 338 11930ft 148kts
04-Apr-15 10:21 34.291045 -117.893187 338 11941ft 150kts
04-Apr-15 10:22 34.320210 -117.907759 338 11953ft 150kts
04-Apr-15 10:23 34.349338 -117.922272 338 11966ft 150kts
04-Apr-15 10:24 34.379137 -117.937171 338 11780ft 158kts
04-Apr-15 10:25 34.417084 -117.941489 2 11347ft 160kts
04-Apr-15 10:26 34.454210 -117.941615 0 10925ft 160kts
04-Apr-15 10:27 34.504890 -117.942384 0 10264ft 152kts
04-Apr-15 10:28 34.546837 -117.943038 0 9570ft 151kts
04-Apr-15 10:29 34.580867 -117.943564 0 8913ft 152kts
04-Apr-15 10:30 34.622437 -117.944217 0 8008ft 147kts
04-Apr-15 10:31 34.663069 -117.944854 359 6813ft 146kts
04-Apr-15 10:32 34.700290 -117.945443 359 6276ft 118kts
04-Apr-15 10:33 34.727180 -117.952190 294 6002ft 104kts
04-Apr-15 10:34 34.732884 -117.986470 276 5487ft 112kts
04-Apr-15 10:35 34.736975 -118.024243 275 4800ft 110kts
04-Apr-15 10:36 34.740741 -118.061075 276 4118ft 107kts
04-Apr-15 10:37 34.744327 -118.096223 276 3867ft 100kts
04-Apr-15 10:38 34.747338 -118.127886 267 3764ft 96kts
04-Apr-15 10:39 34.745937 -118.163450 266 3312ft 105kts
04-Apr-15 10:40 34.744690 -118.195214 272 2717ft 82kts
04-Apr-15 10:41 34.741720 -118.216289 258 2355ft 30kts

Navigation Log

Ident Type
Flight plan parsing failed, navigation log unavailable